Time;durP1;ratioP1;P1;durP2;ratioP2;P2;SDS_P1;SDS_P2;PMS_P1;PMS_P2;Temp;Humidity;BMP_temperature;BMP_pressure;BME280_temperature;BME280_humidity;BME280_pressure;Samples;Min_cycle;Max_cycle;Signal;HPM_P1;HPM_P2
2023/09/30 00:00:08;;;;;;;15.00;4.65;;;11.70;99.90;;;;;;5080222;28;20058;-66
2023/09/30 00:02:34;;;;;;;12.07;4.30;;;11.60;99.90;;;;;;5063967;28;20522;-65
2023/09/30 00:05:00;;;;;;;14.18;5.53;;;11.60;99.90;;;;;;5097249;28;20067;-66
2023/09/30 00:07:26;;;;;;;16.25;5.53;;;11.60;99.90;;;;;;5096838;28;20036;-65
2023/09/30 00:09:52;;;;;;;20.98;6.35;;;11.60;99.90;;;;;;5079793;28;20036;-66
2023/09/30 00:12:18;;;;;;;14.55;5.70;;;11.50;99.90;;;;;;5096838;28;20088;-66
2023/09/30 00:14:49;;;;;;;16.02;6.10;;;11.50;99.90;;;;;;5063080;28;20154;-66
2023/09/30 00:17:15;;;;;;;16.55;5.72;;;11.50;99.90;;;;;;5097016;28;20416;-65
2023/09/30 00:19:41;;;;;;;16.52;5.20;;;11.50;99.90;;;;;;5096468;28;20052;-66
2023/09/30 00:22:07;;;;;;;13.07;5.00;;;11.50;99.90;;;;;;5096526;28;20047;-66
2023/09/30 00:24:42;;;;;;;12.77;4.78;;;11.50;99.90;;;;;;5096846;28;20479;-65
2023/09/30 00:27:08;;;;;;;16.27;5.72;;;11.50;99.90;;;;;;5096903;28;20373;-65
2023/09/30 00:29:34;;;;;;;19.35;5.93;;;11.50;99.90;;;;;;5096384;28;20046;-66
2023/09/30 00:31:59;;;;;;;16.63;5.30;;;11.40;99.90;;;;;;5096671;28;20368;-66
2023/09/30 00:34:25;;;;;;;15.60;6.00;;;11.40;99.90;;;;;;5096544;28;20035;-65
2023/09/30 00:36:51;;;;;;;15.63;6.10;;;11.40;99.90;;;;;;5096630;28;20042;-65
2023/09/30 00:39:17;;;;;;;19.60;6.40;;;11.40;99.90;;;;;;5079307;28;20043;-66
2023/09/30 00:41:43;;;;;;;22.35;6.68;;;11.30;99.90;;;;;;5096560;28;20138;-66
2023/09/30 00:44:09;;;;;;;17.50;5.97;;;11.30;99.90;;;;;;5096688;28;20051;-67
2023/09/30 00:46:41;;;;;;;18.33;5.47;;;11.30;99.90;;;;;;5096547;28;20487;-70
2023/09/30 00:49:17;;;;;;;20.33;6.38;;;11.30;99.90;;;;;;5096233;28;20079;-70
2023/09/30 00:51:45;;;;;;;17.63;6.03;;;11.30;99.90;;;;;;5096116;28;20051;-70
2023/09/30 00:54:10;;;;;;;20.25;6.00;;;11.30;99.90;;;;;;5079169;28;20035;-70
2023/09/30 00:56:44;;;;;;;15.85;5.88;;;11.30;99.90;;;;;;5095980;28;20182;-70
2023/09/30 00:59:10;;;;;;;22.02;6.38;;;11.30;99.90;;;;;;5096223;28;20043;-70
2023/09/30 01:01:36;;;;;;;19.98;6.45;;;11.30;99.90;;;;;;5062924;28;20051;-71
2023/09/30 01:04:02;;;;;;;14.90;5.22;;;11.40;99.90;;;;;;5062764;28;20417;-66
2023/09/30 01:06:28;;;;;;;19.00;6.10;;;11.30;99.90;;;;;;5095986;28;20043;-66
2023/09/30 01:09:03;;;;;;;21.70;6.00;;;11.30;99.90;;;;;;5095759;28;20039;-66
2023/09/30 01:11:29;;;;;;;18.88;5.70;;;11.30;99.90;;;;;;5078974;28;20035;-66
2023/09/30 01:13:55;;;;;;;18.70;6.13;;;11.30;99.90;;;;;;5095633;28;20040;-65
2023/09/30 01:16:21;;;;;;;18.45;6.07;;;11.30;99.90;;;;;;5079108;28;20043;-65
2023/09/30 01:18:47;;;;;;;20.63;6.20;;;11.30;99.90;;;;;;5095332;28;20059;-65
2023/09/30 01:21:18;;;;;;;21.65;6.18;;;11.30;99.90;;;;;;5079410;28;20039;-65
2023/09/30 01:23:47;;;;;;;16.02;5.53;;;11.30;99.90;;;;;;5095831;28;20059;-66
2023/09/30 01:26:14;;;;;;;16.13;5.95;;;11.40;99.90;;;;;;5079166;28;20130;-66
2023/09/30 01:28:48;;;;;;;17.05;5.72;;;11.40;99.90;;;;;;5079220;28;20132;-65
2023/09/30 01:31:21;;;;;;;20.47;6.00;;;11.40;99.90;;;;;;5063321;28;20062;-66
2023/09/30 01:33:47;;;;;;;18.77;5.72;;;11.40;99.90;;;;;;5062379;28;20042;-66
2023/09/30 01:36:13;;;;;;;16.70;5.75;;;11.40;99.90;;;;;;5095620;28;20036;-66
2023/09/30 01:38:39;;;;;;;19.95;5.82;;;11.40;99.90;;;;;;5095666;28;20050;-65
2023/09/30 01:41:04;;;;;;;19.67;5.97;;;11.40;99.90;;;;;;5078773;28;20043;-65
2023/09/30 01:43:31;;;;;;;17.90;6.57;;;11.40;99.90;;;;;;5062201;28;20082;-66
2023/09/30 01:45:58;;;;;;;17.75;6.50;;;11.40;99.90;;;;;;5078922;28;20471;-66
2023/09/30 01:48:23;;;;;;;19.08;5.40;;;11.40;99.90;;;;;;5095451;28;20127;-66
2023/09/30 01:50:49;;;;;;;17.00;5.10;;;11.40;99.90;;;;;;5095612;28;20085;-65
2023/09/30 01:53:15;;;;;;;18.38;6.28;;;11.40;99.90;;;;;;5095180;28;20122;-66
2023/09/30 01:55:41;;;;;;;16.70;5.50;;;11.40;99.90;;;;;;5078748;28;20406;-66
2023/09/30 01:58:07;;;;;;;17.05;5.88;;;11.40;99.90;;;;;;5095461;28;20043;-66
2023/09/30 02:00:35;;;;;;;15.07;5.38;;;11.40;99.90;;;;;;5095083;28;20037;-66
2023/09/30 02:03:00;;;;;;;16.45;5.68;;;11.30;99.90;;;;;;5078375;28;20047;-66
2023/09/30 02:05:26;;;;;;;21.15;5.93;;;11.30;99.90;;;;;;5078363;28;20043;-66
2023/09/30 02:07:52;;;;;;;19.88;7.20;;;11.20;99.90;;;;;;5094888;28;20126;-66
2023/09/30 02:10:18;;;;;;;17.98;6.70;;;11.20;99.90;;;;;;5065287;28;20031;-65
2023/09/30 02:12:46;;;;;;;19.20;6.32;;;11.20;99.90;;;;;;5082122;28;20058;-67
2023/09/30 02:15:12;;;;;;;19.30;6.00;;;11.20;99.90;;;;;;5082203;28;20036;-66
2023/09/30 02:17:38;;;;;;;16.60;5.60;;;11.10;99.90;;;;;;5099204;28;20380;-65
2023/09/30 02:20:15;;;;;;;13.63;5.38;;;11.20;99.90;;;;;;5117321;28;20040;-65
2023/09/30 02:22:43;;;;;;;15.80;5.57;;;11.10;99.90;;;;;;5099240;28;20076;-66
2023/09/30 02:25:09;;;;;;;16.67;5.75;;;11.20;99.90;;;;;;5082380;28;20061;-64
2023/09/30 02:27:35;;;;;;;16.33;5.80;;;11.10;99.90;;;;;;5098772;28;20039;-65
2023/09/30 02:30:05;;;;;;;22.13;6.97;;;11.10;99.90;;;;;;5098815;28;20039;-65
2023/09/30 02:32:33;;;;;;;12.38;5.78;;;11.10;99.90;;;;;;5098874;28;20096;-66
2023/09/30 02:34:59;;;;;;;15.27;5.60;;;11.20;99.90;;;;;;5082291;28;20050;-65
2023/09/30 02:37:25;;;;;;;15.93;6.25;;;11.20;99.90;;;;;;5081893;28;20035;-65
2023/09/30 02:39:51;;;;;;;17.63;6.05;;;11.20;99.90;;;;;;5098839;28;20509;-64
2023/09/30 02:42:23;;;;;;;14.77;6.20;;;11.20;99.90;;;;;;5098672;28;20518;-66
2023/09/30 02:44:49;;;;;;;15.60;6.22;;;11.10;99.90;;;;;;5098756;28;20051;-66
2023/09/30 02:47:15;;;;;;;21.42;7.85;;;11.10;99.90;;;;;;5098504;28;20127;-65
2023/09/30 02:49:42;;;;;;;17.15;6.30;;;11.10;99.90;;;;;;5098287;28;20066;-65
2023/09/30 02:52:08;;;;;;;18.65;6.35;;;11.10;99.90;;;;;;5098483;28;20035;-65
2023/09/30 02:54:33;;;;;;;19.45;6.72;;;11.10;99.90;;;;;;5065090;28;20035;-66
2023/09/30 02:57:03;;;;;;;16.00;6.68;;;11.10;99.90;;;;;;5081405;28;20042;-66
2023/09/30 02:59:29;;;;;;;16.98;6.10;;;11.10;99.90;;;;;;5098450;28;20043;-65
2023/09/30 03:01:56;;;;;;;18.48;7.13;;;11.10;99.90;;;;;;5098170;28;20054;-64
2023/09/30 03:04:25;;;;;;;17.70;6.95;;;11.10;99.90;;;;;;5098084;28;20040;-69
2023/09/30 03:06:51;;;;;;;17.40;7.13;;;11.10;99.90;;;;;;5082079;28;20051;-71
2023/09/30 03:09:17;;;;;;;25.33;7.60;;;11.10;99.90;;;;;;5081243;28;20043;-71
2023/09/30 03:11:52;;;;;;;21.55;7.72;;;11.10;99.90;;;;;;5098298;28;20085;-71
2023/09/30 03:14:18;;;;;;;20.45;7.43;;;11.10;99.90;;;;;;5116539;28;20039;-70
2023/09/30 03:16:44;;;;;;;18.25;7.55;;;11.10;99.90;;;;;;5081235;28;20046;-70
2023/09/30 03:19:11;;;;;;;15.40;6.65;;;11.10;99.90;;;;;;5081063;28;20059;-70
2023/09/30 03:21:37;;;;;;;16.98;7.30;;;11.10;99.90;;;;;;5079653;28;20051;-69
2023/09/30 03:24:04;;;;;;;17.88;7.03;;;11.10;99.90;;;;;;5064367;28;20172;-69
2023/09/30 03:26:33;;;;;;;13.95;5.97;;;11.10;99.90;;;;;;5097175;28;20530;-69
2023/09/30 03:28:59;;;;;;;22.48;8.10;;;11.10;99.90;;;;;;5081018;28;20039;-70
2023/09/30 03:31:25;;;;;;;21.85;8.00;;;11.10;99.90;;;;;;5097608;28;20491;-70
2023/09/30 03:34:00;;;;;;;19.60;7.25;;;11.10;99.90;;;;;;5097709;28;20036;-70
2023/09/30 03:36:26;;;;;;;19.25;7.00;;;11.10;99.90;;;;;;5097587;28;20049;-70
2023/09/30 03:38:59;;;;;;;18.50;8.00;;;11.10;99.90;;;;;;5063792;28;20040;-70
2023/09/30 03:41:36;;;;;;;18.70;7.43;;;11.10;99.90;;;;;;5081807;28;20123;-70
2023/09/30 03:44:02;;;;;;;18.80;8.00;;;11.10;99.90;;;;;;5097613;28;20126;-71
2023/09/30 03:46:31;;;;;;;18.63;7.32;;;11.00;99.90;;;;;;5097550;28;20074;-71
2023/09/30 03:49:03;;;;;;;19.42;8.05;;;11.00;99.90;;;;;;5097110;28;20126;-71
2023/09/30 03:51:32;;;;;;;23.33;9.18;;;11.00;99.90;;;;;;5080758;28;20495;-71
2023/09/30 03:53:58;;;;;;;20.92;8.10;;;11.00;99.90;;;;;;5064532;28;20034;-70
2023/09/30 03:56:23;;;;;;;20.00;8.48;;;11.00;99.90;;;;;;5080216;28;20043;-70
2023/09/30 03:58:49;;;;;;;19.00;7.53;;;10.90;99.90;;;;;;5097102;28;20040;-70
2023/09/30 04:01:16;;;;;;;19.10;6.90;;;10.90;99.90;;;;;;5097231;28;20062;-70
2023/09/30 04:03:44;;;;;;;22.45;7.65;;;10.90;99.90;;;;;;5115350;28;20035;-70
2023/09/30 04:06:10;;;;;;;19.52;7.18;;;10.90;99.90;;;;;;5096846;28;20043;-70
2023/09/30 04:08:36;;;;;;;22.70;8.43;;;10.90;99.90;;;;;;5079856;28;20058;-69
2023/09/30 04:11:03;;;;;;;17.35;7.18;;;10.90;99.90;;;;;;5080331;28;20031;-70
2023/09/30 04:13:31;;;;;;;17.45;7.05;;;10.90;99.90;;;;;;5115315;28;20094;-70
2023/09/30 04:16:03;;;;;;;19.10;7.50;;;10.90;99.90;;;;;;5097103;28;20188;-71
2023/09/30 04:18:30;;;;;;;17.90;7.55;;;10.90;99.90;;;;;;5093274;28;20417;-70
2023/09/30 04:20:56;;;;;;;19.15;7.90;;;10.90;99.90;;;;;;5076425;28;20044;-70
2023/09/30 04:23:22;;;;;;;20.40;7.28;;;10.90;99.90;;;;;;5059910;28;20123;-70
2023/09/30 04:25:57;;;;;;;19.40;8.00;;;10.90;99.90;;;;;;5076306;28;20184;-71
2023/09/30 04:28:24;;;;;;;22.73;8.88;;;10.90;99.90;;;;;;5076527;28;20126;-71
2023/09/30 04:30:51;;;;;;;16.85;7.60;;;10.90;99.90;;;;;;5076782;28;20040;-70
2023/09/30 04:33:26;;;;;;;19.33;7.63;;;11.00;99.90;;;;;;5076186;28;20561;-71
2023/09/30 04:35:52;;;;;;;19.17;7.90;;;11.00;99.90;;;;;;5059924;28;20125;-70
2023/09/30 04:38:18;;;;;;;19.70;8.18;;;11.00;99.90;;;;;;5093007;28;20102;-71
2023/09/30 04:40:54;;;;;;;21.30;8.80;;;11.00;99.90;;;;;;5093249;28;20043;-70
2023/09/30 04:43:23;;;;;;;21.50;8.90;;;11.00;99.90;;;;;;5077685;28;20043;-70
2023/09/30 04:45:52;;;;;;;20.95;7.72;;;11.10;99.90;;;;;;5092916;28;20044;-69
2023/09/30 04:48:18;;;;;;;19.20;7.85;;;11.00;99.90;;;;;;5092655;28;20051;-71
2023/09/30 04:50:44;;;;;;;17.73;7.50;;;11.00;99.90;;;;;;5092787;28;20044;-70
2023/09/30 04:53:09;;;;;;;20.98;8.18;;;11.10;99.90;;;;;;5075830;28;20048;-69
2023/09/30 04:55:37;;;;;;;19.98;8.18;;;11.10;99.90;;;;;;5092773;28;20040;-71
2023/09/30 04:58:05;;;;;;;19.23;7.88;;;11.10;99.90;;;;;;5092834;28;20071;-71
2023/09/30 05:00:30;;;;;;;19.20;7.75;;;11.10;99.90;;;;;;5075892;28;20135;-70
2023/09/30 05:03:11;;;;;;;20.17;9.10;;;11.10;99.90;;;;;;5092596;28;20150;-71
2023/09/30 05:05:51;;;;;;;17.27;7.78;;;11.10;99.90;;;;;;5062914;28;20054;-71
2023/09/30 05:08:25;;;;;;;15.65;7.68;;;11.10;99.90;;;;;;5076103;28;20044;-71
2023/09/30 05:10:58;;;;;;;20.63;8.80;;;11.10;99.90;;;;;;5093695;28;20040;-71
2023/09/30 05:13:24;;;;;;;19.15;8.10;;;11.10;99.90;;;;;;5092321;28;20040;-70
2023/09/30 05:15:51;;;;;;;21.77;8.55;;;11.10;99.90;;;;;;5075434;28;20046;-71
2023/09/30 05:18:17;;;;;;;19.80;8.38;;;11.10;99.90;;;;;;5059014;28;20143;-72
2023/09/30 05:20:43;;;;;;;18.90;8.18;;;11.10;99.90;;;;;;5092211;28;20086;-71
2023/09/30 05:23:14;;;;;;;17.17;8.43;;;11.10;99.90;;;;;;5092443;28;20036;-72
2023/09/30 05:25:40;;;;;;;18.02;8.07;;;11.10;99.90;;;;;;5092328;28;20048;-68
2023/09/30 05:28:06;;;;;;;21.42;10.00;;;11.10;99.90;;;;;;5092291;28;20119;-66
2023/09/30 05:30:33;;;;;;;18.83;9.05;;;11.10;99.90;;;;;;5092329;28;20460;-66
2023/09/30 05:33:00;;;;;;;20.10;10.13;;;11.10;99.90;;;;;;5075272;28;20051;-66
2023/09/30 05:35:26;;;;;;;21.75;9.65;;;11.10;99.90;;;;;;5075728;28;20503;-67
2023/09/30 05:37:53;;;;;;;19.83;10.30;;;11.10;99.90;;;;;;5091921;28;20040;-68
2023/09/30 05:40:23;;;;;;;15.45;8.38;;;11.10;99.90;;;;;;5075078;28;20048;-67
2023/09/30 05:42:49;;;;;;;22.85;9.70;;;11.00;99.90;;;;;;5075324;28;20051;-69
2023/09/30 05:45:15;;;;;;;16.50;8.70;;;11.10;99.90;;;;;;5091894;28;20480;-65
2023/09/30 05:47:41;;;;;;;16.80;8.07;;;11.10;99.90;;;;;;5093470;28;20036;-65
2023/09/30 05:50:09;;;;;;;21.75;9.10;;;11.10;99.90;;;;;;5091857;28;20511;-67
2023/09/30 05:52:35;;;;;;;18.55;9.55;;;11.00;99.90;;;;;;5092020;28;20076;-65
2023/09/30 05:55:02;;;;;;;16.75;8.70;;;11.00;99.90;;;;;;5092078;28;20122;-66
2023/09/30 05:57:31;;;;;;;20.83;9.40;;;11.10;99.90;;;;;;5092167;28;20069;-66
2023/09/30 05:59:57;;;;;;;19.40;9.75;;;11.10;99.90;;;;;;5092096;28;20055;-66
2023/09/30 06:02:23;;;;;;;17.52;8.75;;;11.10;99.90;;;;;;5091753;28;20036;-65
2023/09/30 06:04:50;;;;;;;19.70;9.23;;;11.00;99.90;;;;;;5074942;28;20118;-66
2023/09/30 06:07:19;;;;;;;15.38;8.93;;;11.10;99.90;;;;;;5075529;28;20040;-66
2023/09/30 06:09:47;;;;;;;17.02;9.32;;;11.10;99.90;;;;;;5091624;28;20044;-66
2023/09/30 06:12:13;;;;;;;18.70;10.00;;;11.10;99.90;;;;;;5042129;28;20082;-65
2023/09/30 06:14:40;;;;;;;19.35;9.68;;;11.10;99.90;;;;;;5091913;28;20072;-66
2023/09/30 06:17:13;;;;;;;16.20;10.02;;;11.10;99.90;;;;;;5058686;28;20388;-66
2023/09/30 06:19:40;;;;;;;17.65;9.20;;;11.10;99.90;;;;;;5075160;28;20135;-65
2023/09/30 06:22:06;;;;;;;21.52;11.07;;;11.10;99.90;;;;;;5092987;28;20459;-66
2023/09/30 06:24:32;;;;;;;25.15;12.30;;;11.10;99.90;;;;;;5091743;28;20399;-66
2023/09/30 06:26:57;;;;;;;20.83;12.45;;;11.20;99.90;;;;;;5074985;28;20039;-65
2023/09/30 06:29:27;;;;;;;23.60;13.05;;;11.30;99.90;;;;;;5074784;28;20040;-66
2023/09/30 06:31:53;;;;;;;27.23;15.93;;;11.60;99.90;;;;;;5057814;28;20048;-65
2023/09/30 06:34:21;;;;;;;21.27;12.48;;;11.90;99.90;;;;;;5091500;28;20380;-66
2023/09/30 06:36:47;;;;;;;19.67;12.13;;;12.10;99.90;;;;;;5075028;28;20044;-66
2023/09/30 06:39:12;;;;;;;19.35;10.35;;;12.20;99.90;;;;;;5091853;28;20120;-64
2023/09/30 06:41:39;;;;;;;22.33;11.20;;;12.20;99.90;;;;;;5091570;28;20050;-66
2023/09/30 06:44:05;;;;;;;22.50;11.55;;;12.20;99.90;;;;;;5092744;28;20044;-66
2023/09/30 06:46:46;;;;;;;19.80;11.40;;;12.20;99.90;;;;;;5089064;28;20544;-66
2023/09/30 06:49:12;;;;;;;20.02;10.18;;;12.20;99.90;;;;;;5074450;28;20359;-66
2023/09/30 06:51:38;;;;;;;24.85;11.63;;;12.20;99.90;;;;;;5091535;28;20365;-64
2023/09/30 06:54:06;;;;;;;16.70;10.23;;;12.20;99.90;;;;;;5091297;28;20051;-66
2023/09/30 06:56:32;;;;;;;19.27;10.75;;;12.30;99.90;;;;;;5078275;28;20086;-65
2023/09/30 06:58:58;;;;;;;18.92;11.35;;;12.30;99.90;;;;;;5096072;28;20044;-66
2023/09/30 07:01:24;;;;;;;20.40;10.50;;;12.20;99.90;;;;;;5095225;28;20046;-66
2023/09/30 07:03:49;;;;;;;17.45;10.68;;;12.30;99.90;;;;;;5095108;28;20063;-67
2023/09/30 07:06:23;;;;;;;21.17;11.02;;;12.30;99.90;;;;;;5078232;28;20051;-66
2023/09/30 07:08:52;;;;;;;19.00;11.25;;;12.30;99.90;;;;;;5094786;28;20048;-70
2023/09/30 07:11:29;;;;;;;19.13;10.82;;;12.30;99.90;;;;;;5094685;28;20040;-70
2023/09/30 07:13:55;;;;;;;21.92;10.90;;;12.40;99.90;;;;;;5094976;28;20480;-65
2023/09/30 07:16:21;;;;;;;20.02;10.57;;;12.40;99.90;;;;;;5094505;28;20040;-65
2023/09/30 07:18:47;;;;;;;17.73;11.50;;;12.50;99.90;;;;;;5077619;28;20581;-65
2023/09/30 07:21:13;;;;;;;19.45;11.38;;;12.50;99.90;;;;;;5094664;28;20048;-65
2023/09/30 07:23:40;;;;;;;20.05;11.35;;;12.60;99.90;;;;;;5077819;28;20504;-66
2023/09/30 07:26:06;;;;;;;19.95;11.40;;;12.60;99.90;;;;;;5060937;28;20044;-65
2023/09/30 07:28:33;;;;;;;22.27;11.88;;;12.70;99.90;;;;;;5094514;28;20063;-67
2023/09/30 07:30:59;;;;;;;19.73;11.63;;;12.80;99.90;;;;;;5094323;28;20043;-66
2023/09/30 07:33:25;;;;;;;19.65;11.32;;;12.80;99.90;;;;;;5060709;28;20036;-66
2023/09/30 07:35:51;;;;;;;18.00;11.30;;;12.80;99.90;;;;;;5094161;28;20036;-65
2023/09/30 07:38:17;;;;;;;22.38;12.55;;;12.90;99.90;;;;;;5077278;28;20044;-66
2023/09/30 07:40:44;;;;;;;19.00;12.63;;;12.90;99.90;;;;;;5094035;28;20040;-66
2023/09/30 07:43:12;;;;;;;18.10;11.27;;;13.00;99.90;;;;;;5095366;28;20036;-66
2023/09/30 07:45:39;;;;;;;21.23;12.55;;;13.10;99.90;;;;;;5077493;28;20071;-70
2023/09/30 07:48:06;;;;;;;20.00;12.45;;;13.20;99.90;;;;;;5077561;28;20036;-70
2023/09/30 07:50:33;;;;;;;23.45;12.65;;;13.20;99.90;;;;;;5093825;28;20074;-70
2023/09/30 07:53:00;;;;;;;20.45;13.00;;;13.30;99.90;;;;;;5077427;28;20506;-71
2023/09/30 07:55:26;;;;;;;20.20;12.32;;;13.50;99.90;;;;;;5077350;28;20050;-71
2023/09/30 07:57:52;;;;;;;23.08;12.73;;;13.50;99.90;;;;;;5094104;28;20044;-70
2023/09/30 08:00:21;;;;;;;22.35;12.30;;;13.60;99.90;;;;;;5093904;28;20104;-71
2023/09/30 08:02:47;;;;;;;22.45;12.30;;;13.60;99.90;;;;;;5093887;28;20048;-70
2023/09/30 08:05:13;;;;;;;21.02;13.27;;;13.60;99.90;;;;;;5076804;28;20100;-70
2023/09/30 08:07:39;;;;;;;22.88;12.93;;;13.70;99.90;;;;;;5092881;28;20480;-70
2023/09/30 08:10:15;;;;;;;19.17;11.30;;;13.80;99.90;;;;;;5093567;28;20429;-70
2023/09/30 08:12:41;;;;;;;21.85;12.15;;;13.90;99.90;;;;;;5093521;28;20119;-71
2023/09/30 08:15:08;;;;;;;17.63;11.43;;;13.90;99.90;;;;;;5093635;28;20178;-70
2023/09/30 08:17:34;;;;;;;19.80;11.50;;;14.00;99.90;;;;;;5076840;28;20040;-71
2023/09/30 08:20:04;;;;;;;18.02;11.32;;;14.10;99.90;;;;;;5080144;28;20616;-70
2023/09/30 08:22:30;;;;;;;18.40;11.45;;;14.20;99.90;;;;;;5096827;28;20070;-71
2023/09/30 08:24:56;;;;;;;18.48;11.75;;;14.20;99.90;;;;;;5097079;28;20132;-65
2023/09/30 08:27:23;;;;;;;20.30;12.10;;;14.30;99.90;;;;;;5063241;28;20105;-66
2023/09/30 08:29:56;;;;;;;20.90;11.85;;;14.30;99.90;;;;;;5079915;28;20510;-65
2023/09/30 08:32:21;;;;;;;21.15;11.70;;;14.40;99.90;;;;;;5114820;28;20047;-67
2023/09/30 08:34:54;;;;;;;18.63;11.68;;;14.50;99.90;;;;;;5079845;28;20043;-67
2023/09/30 08:37:21;;;;;;;17.55;11.02;;;14.70;99.90;;;;;;5079454;28;20050;-65
2023/09/30 08:39:46;;;;;;;18.67;11.25;;;14.90;99.90;;;;;;5079704;28;20051;-65
2023/09/30 08:42:12;;;;;;;19.48;10.80;;;14.90;99.90;;;;;;5079443;28;20046;-64
2023/09/30 08:44:41;;;;;;;20.88;11.45;;;15.20;99.90;;;;;;5079583;28;20043;-64
2023/09/30 08:47:10;;;;;;;19.23;11.88;;;15.20;99.90;;;;;;5096146;28;20070;-65
2023/09/30 08:49:40;;;;;;;18.67;11.07;;;15.30;99.90;;;;;;5114419;28;20093;-64
2023/09/30 08:52:08;;;;;;;19.90;10.57;;;15.40;99.90;;;;;;5079119;28;20040;-64
2023/09/30 08:54:34;;;;;;;18.42;10.80;;;15.40;99.90;;;;;;5096128;28;20044;-72
2023/09/30 08:57:10;;;;;;;19.10;11.57;;;15.60;99.90;;;;;;5096536;28;20035;-71
2023/09/30 08:59:36;;;;;;;20.33;11.63;;;15.70;99.90;;;;;;5096462;28;20040;-70
2023/09/30 09:02:06;;;;;;;16.85;10.35;;;16.00;99.90;;;;;;5096579;28;20119;-70
2023/09/30 09:04:36;;;;;;;15.40;9.93;;;16.20;99.90;;;;;;5095994;28;20079;-71
2023/09/30 09:07:02;;;;;;;16.10;10.25;;;16.60;99.90;;;;;;5080157;28;20043;-72
2023/09/30 09:09:27;;;;;;;17.77;10.05;;;16.70;99.90;;;;;;5114550;28;20544;-72
2023/09/30 09:11:53;;;;;;;17.17;9.73;;;17.00;99.90;;;;;;5095881;28;20082;-72
2023/09/30 09:14:38;;;;;;;14.68;9.52;;;17.20;99.90;;;;;;5079395;28;20040;-72
2023/09/30 09:17:07;;;;;;;16.02;9.10;;;17.50;99.90;;;;;;5081788;28;20047;-71
2023/09/30 09:19:36;;;;;;;17.63;9.40;;;17.70;99.90;;;;;;5079359;28;20446;-72
2023/09/30 09:22:06;;;;;;;14.57;8.70;;;17.80;99.90;;;;;;5095864;28;20074;-70
2023/09/30 09:24:33;;;;;;;18.75;9.15;;;17.90;99.90;;;;;;5095932;28;20043;-71
2023/09/30 09:27:09;;;;;;;16.00;8.32;;;17.90;99.90;;;;;;5095913;28;20039;-70
2023/09/30 09:29:39;;;;;;;17.45;8.75;;;17.90;99.90;;;;;;5078816;28;20085;-70
2023/09/30 09:32:15;;;;;;;16.40;8.43;;;17.90;99.90;;;;;;5113985;28;20483;-71
2023/09/30 09:34:59;;;;;;;16.80;7.95;;;17.90;99.90;;;;;;5095819;28;20043;-69
2023/09/30 09:37:25;;;;;;;14.25;7.95;;;17.90;99.90;;;;;;5095844;28;20039;-70
2023/09/30 09:39:56;;;;;;;17.35;8.38;;;17.90;99.90;;;;;;5095607;28;20042;-71
2023/09/30 09:42:32;;;;;;;14.80;8.32;;;18.00;99.90;;;;;;5095381;28;20035;-66
2023/09/30 09:45:01;;;;;;;16.83;8.30;;;18.20;99.90;;;;;;5095290;28;20043;-65
2023/09/30 09:47:29;;;;;;;15.38;8.00;;;18.30;99.90;;;;;;5095287;28;20054;-66
2023/09/30 09:50:06;;;;;;;16.17;8.93;;;18.40;99.90;;;;;;5078376;28;20043;-65
2023/09/30 09:52:37;;;;;;;16.63;8.07;;;18.70;99.90;;;;;;5095253;28;20089;-66
2023/09/30 09:55:04;;;;;;;17.67;8.45;;;18.80;99.90;;;;;;5095317;28;20067;-65
2023/09/30 09:57:31;;;;;;;14.55;8.68;;;19.00;99.90;;;;;;5094902;28;20047;-65
2023/09/30 09:59:58;;;;;;;14.10;8.27;;;19.00;99.90;;;;;;5078399;28;20054;-65
2023/09/30 10:02:25;;;;;;;14.48;8.30;;;19.20;99.90;;;;;;5078808;28;20063;-64
2023/09/30 10:04:51;;;;;;;16.67;8.63;;;19.30;99.90;;;;;;5078373;28;20061;-65
2023/09/30 10:07:34;;;;;;;17.45;9.20;;;19.30;99.90;;;;;;5095311;28;20043;-65
2023/09/30 10:10:02;;;;;;;17.25;8.50;;;19.30;99.90;;;;;;5078230;28;20043;-64
2023/09/30 10:12:35;;;;;;;14.88;7.47;;;19.40;99.90;;;;;;5095002;28;20081;-65
2023/09/30 10:15:21;;;;;;;15.45;6.97;;;19.50;99.90;;;;;;5095482;28;20061;-66
2023/09/30 10:18:04;;;;;;;13.90;6.75;;;19.50;99.90;;;;;;5113043;28;20503;-64
2023/09/30 10:20:32;;;;;;;12.73;7.03;;;19.60;99.90;;;;;;5095039;28;20126;-65
2023/09/30 10:23:24;;;;;;;12.90;6.30;;;19.70;99.90;;;;;;5113168;28;20042;-65
2023/09/30 10:26:15;;;;;;;15.60;6.03;;;19.70;99.90;;;;;;5094973;28;20054;-65
2023/09/30 10:28:50;;;;;;;13.32;5.70;;;19.70;99.90;;;;;;5078049;28;20158;-66
2023/09/30 10:31:21;;;;;;;11.70;5.70;;;19.80;99.90;;;;;;5098634;28;20112;-65
2023/09/30 10:34:10;;;;;;;14.68;5.85;;;19.80;99.90;;;;;;5098824;28;20051;-64
2023/09/30 10:36:41;;;;;;;14.45;6.40;;;19.80;99.90;;;;;;5067369;28;20048;-64
2023/09/30 10:39:40;;;;;;;16.23;7.30;;;19.90;99.90;;;;;;5081788;28;20051;-65
2023/09/30 10:42:06;;;;;;;12.55;6.30;;;20.00;99.90;;;;;;5081732;28;20488;-65
2023/09/30 10:44:35;;;;;;;12.80;5.72;;;20.10;99.90;;;;;;5081739;28;20050;-64
2023/09/30 10:47:21;;;;;;;12.18;6.00;;;20.20;99.90;;;;;;5081561;28;20039;-65
2023/09/30 10:49:47;;;;;;;16.73;5.80;;;20.30;99.90;;;;;;5098391;28;20050;-63
2023/09/30 10:52:25;;;;;;;13.15;5.57;;;20.30;99.90;;;;;;5098704;28;20036;-66
2023/09/30 10:54:51;;;;;;;15.75;5.20;;;20.40;99.90;;;;;;5098769;28;20043;-63
2023/09/30 10:57:30;;;;;;;10.98;4.40;;;20.40;99.90;;;;;;5048422;28;20044;-65
2023/09/30 11:00:12;;;;;;;12.25;4.85;;;20.50;99.90;;;;;;5098432;28;20564;-66
2023/09/30 11:02:52;;;;;;;10.50;4.82;;;20.50;99.90;;;;;;5064749;28;20035;-66
2023/09/30 11:05:20;;;;;;;12.32;4.65;;;20.50;99.90;;;;;;5081831;28;20188;-66
2023/09/30 11:07:48;;;;;;;10.07;3.78;;;20.30;99.90;;;;;;5098257;28;20054;-65
2023/09/30 11:10:22;;;;;;;11.25;4.00;;;20.00;99.90;;;;;;5098050;28;20484;-65
2023/09/30 11:12:58;;;;;;;11.15;4.03;;;19.80;99.90;;;;;;5097858;28;20112;-66
2023/09/30 11:15:24;;;;;;;11.48;3.78;;;19.40;99.90;;;;;;5098253;28;20042;-67
2023/09/30 11:17:52;;;;;;;11.77;3.35;;;19.30;99.90;;;;;;5097745;28;20036;-67
2023/09/30 11:20:19;;;;;;;9.98;3.08;;;19.20;99.90;;;;;;5097880;28;20073;-66
2023/09/30 11:22:48;;;;;;;7.90;2.72;;;19.10;99.90;;;;;;5081242;28;20495;-65
2023/09/30 11:25:21;;;;;;;10.13;2.70;;;19.20;99.90;;;;;;5081286;28;20070;-72
2023/09/30 11:27:47;;;;;;;12.40;2.72;;;19.30;99.90;;;;;;5081180;28;20059;-66
2023/09/30 11:30:14;;;;;;;9.68;2.60;;;19.50;99.90;;;;;;5064186;28;20132;-65
2023/09/30 11:32:40;;;;;;;8.50;2.80;;;19.60;99.90;;;;;;5097738;28;20039;-65
2023/09/30 11:35:11;;;;;;;10.75;2.95;;;19.80;99.90;;;;;;5080743;28;20506;-64
2023/09/30 11:37:37;;;;;;;9.73;2.83;;;19.90;99.90;;;;;;5080689;28;20043;-65
2023/09/30 11:40:16;;;;;;;10.23;2.90;;;20.10;99.90;;;;;;5097787;28;20043;-64
2023/09/30 11:42:42;;;;;;;8.75;2.65;;;20.10;99.90;;;;;;5114663;28;20041;-64
2023/09/30 11:45:22;;;;;;;9.98;2.55;;;20.30;99.90;;;;;;5097503;28;20035;-64
2023/09/30 11:47:48;;;;;;;9.18;2.60;;;20.30;99.90;;;;;;5097312;28;20071;-64
2023/09/30 11:50:14;;;;;;;9.13;2.72;;;20.40;99.90;;;;;;5080469;28;20040;-70
2023/09/30 11:52:46;;;;;;;8.43;2.45;;;20.50;99.90;;;;;;5097375;28;20035;-71
2023/09/30 11:55:12;;;;;;;10.30;2.63;;;20.50;99.90;;;;;;5097298;28;20044;-71
2023/09/30 11:57:42;;;;;;;10.07;2.47;;;20.50;99.90;;;;;;5097348;28;20100;-71
2023/09/30 12:00:13;;;;;;;9.40;2.90;;;20.60;99.90;;;;;;5080912;28;20050;-70
2023/09/30 12:02:40;;;;;;;11.38;2.67;;;20.50;99.90;;;;;;5097236;28;20144;-71
2023/09/30 12:05:11;;;;;;;9.55;2.50;;;20.50;99.90;;;;;;5080297;28;20035;-71
2023/09/30 12:07:41;;;;;;;7.50;2.20;;;20.30;99.90;;;;;;5096924;28;20035;-73
2023/09/30 12:10:08;;;;;;;8.55;2.30;;;20.20;99.90;;;;;;5096847;28;20048;-72
2023/09/30 12:12:34;;;;;;;9.55;2.33;;;19.90;99.90;;;;;;5096988;28;20040;-70
2023/09/30 12:14:59;;;;;;;8.50;2.30;;;19.80;99.90;;;;;;5080126;28;20372;-73
2023/09/30 12:17:25;;;;;;;8.25;2.00;;;19.70;99.90;;;;;;5115152;28;20400;-72
2023/09/30 12:19:51;;;;;;;8.70;2.20;;;19.60;99.90;;;;;;5096398;28;20620;-72
2023/09/30 12:22:17;;;;;;;6.55;1.92;;;19.50;99.90;;;;;;5096847;28;20070;-71
2023/09/30 12:24:46;;;;;;;8.23;2.20;;;19.50;99.90;;;;;;5115001;28;20039;-70
2023/09/30 12:27:12;;;;;;;8.70;2.33;;;19.60;99.90;;;;;;5097201;28;20054;-71
2023/09/30 12:29:40;;;;;;;9.82;2.67;;;19.70;99.90;;;;;;5080028;28;20055;-71
2023/09/30 12:32:14;;;;;;;8.48;2.38;;;20.00;99.90;;;;;;5079993;28;20088;-71
2023/09/30 12:34:40;;;;;;;9.48;2.40;;;20.10;99.90;;;;;;5096516;28;20051;-65
2023/09/30 12:37:07;;;;;;;7.85;2.15;;;20.30;99.90;;;;;;5096657;28;20032;-65
2023/09/30 12:39:33;;;;;;;7.10;2.30;;;20.30;99.90;;;;;;5079789;28;20043;-65
2023/09/30 12:41:59;;;;;;;10.27;2.50;;;20.40;99.90;;;;;;5096531;28;20089;-65